Kotlas, Russia
Current Conditions -  °F | °C
As of 3:00 PM on Sunday 25 Jan 2015 (Local Time) from UUYY Reporting Station
Overcast Overcast  
Wind Chill: 13°   Ceiling: 1400
Heat Index: 23°   Visibility: 6mi
Dew Point: 19°   Wind: 9mph
Humidity: 86%   Direction: 220°SW
Pressure: 30.36"   Gusts: NA
Location:  61.26°N, 46.66°E
Report Text: UUYY 251200Z 22004MPS 9999 BKN014CB OVC066 M05/M07 Q1028 TEMPO 2000 SHSN 1939//31 RMK QFE762/1017
Loading
Personal Weather Stations






























Interactive Weather Map New forecast layout! Learn more

10-Day Weather Forecast

Advertisements
Track Severe Weather on mobile